Time;durP1;ratioP1;P1;durP2;ratioP2;P2;SDS_P1;SDS_P2;PMS_P1;PMS_P2;Temp;Humidity;BMP_temperature;BMP_pressure;BME280_temperature;BME280_humidity;BME280_pressure;Samples;Min_cycle;Max_cycle;Signal;HPM_P1;HPM_P2
2021/06/23 00:01:04;;;;;;;7.90;7.10;;;;;;;19.47;76.79;96319.81;5116348;28;20024;-66
2021/06/23 00:03:30;;;;;;;9.02;6.80;;;;;;;19.47;76.32;96317.19;5116139;28;20488;-61
2021/06/23 00:05:56;;;;;;;8.63;7.20;;;;;;;19.48;76.81;96310.06;5116127;28;20102;-61
2021/06/23 00:08:21;;;;;;;12.02;8.82;;;;;;;19.52;76.54;96309.72;5116001;28;20492;-66
2021/06/23 00:10:49;;;;;;;10.20;7.57;;;;;;;19.53;76.22;96313.19;5116031;28;20023;-67
2021/06/23 00:13:15;;;;;;;11.75;8.52;;;;;;;19.51;76.40;96323.09;5116021;28;20383;-66
2021/06/23 00:15:41;;;;;;;14.48;8.82;;;;;;;19.43;77.76;96329.84;5115932;28;20032;-64
2021/06/23 00:18:07;;;;;;;16.65;9.80;;;;;;;19.40;77.74;96327.44;5115845;28;20439;-67
2021/06/23 00:20:33;;;;;;;9.65;7.20;;;;;;;19.39;77.83;96322.25;5097626;28;20030;-69
2021/06/23 00:22:59;;;;;;;20.75;9.27;;;;;;;19.39;77.43;96328.38;5115832;28;20031;-62
2021/06/23 00:25:25;;;;;;;13.25;8.77;;;;;;;19.38;77.18;96328.53;5115657;28;20034;-64
2021/06/23 00:27:51;;;;;;;10.68;7.28;;;;;;;19.35;77.37;96326.94;5115740;28;20103;-65
2021/06/23 00:30:17;;;;;;;13.27;9.13;;;;;;;19.34;77.24;96327.03;5115749;28;20016;-64
2021/06/23 00:32:45;;;;;;;11.68;7.60;;;;;;;19.37;77.45;96327.66;5115770;28;20083;-67
2021/06/23 00:35:11;;;;;;;8.45;7.43;;;;;;;19.37;76.96;96325.00;5115601;28;20165;-64
2021/06/23 00:37:37;;;;;;;10.52;8.10;;;;;;;19.40;76.86;96327.44;5115701;28;20557;-67
2021/06/23 00:40:04;;;;;;;9.27;7.32;;;;;;;19.44;76.87;96330.66;5115416;28;20028;-69
2021/06/23 00:42:30;;;;;;;9.60;7.03;;;;;;;19.47;76.38;96329.63;5115593;28;20512;-66
2021/06/23 00:44:56;;;;;;;8.65;7.60;;;;;;;19.42;76.90;96332.63;5115353;28;20102;-65
2021/06/23 00:47:25;;;;;;;10.48;8.43;;;;;;;19.43;76.71;96331.66;5115601;28;20102;-65
2021/06/23 00:49:51;;;;;;;15.68;7.30;;;;;;;19.43;76.71;96337.81;5114545;28;20111;-62
2021/06/23 00:52:17;;;;;;;10.20;7.28;;;;;;;19.41;77.22;96331.75;5115343;28;20092;-67
2021/06/23 00:54:51;;;;;;;10.43;9.38;;;;;;;19.34;77.47;96324.41;5115362;28;20469;-67
2021/06/23 00:57:18;;;;;;;15.48;8.88;;;;;;;19.28;78.73;96315.97;5115192;28;20034;-69
2021/06/23 00:59:45;;;;;;;12.40;7.63;;;;;;;19.27;78.29;96319.56;5115064;28;20016;-65
2021/06/23 01:02:12;;;;;;;11.48;9.48;;;;;;;19.30;79.79;96318.50;5115161;28;20108;-68
2021/06/23 01:04:39;;;;;;;17.05;10.52;;;;;;;19.33;79.44;96320.91;5115042;28;20409;-65
2021/06/23 01:07:05;;;;;;;17.85;7.97;;;;;;;19.36;79.13;96319.81;5115101;28;20020;-68
2021/06/23 01:09:31;;;;;;;8.55;7.20;;;;;;;19.41;77.64;96321.16;5114936;28;20031;-69
2021/06/23 01:12:20;;;;;;;10.00;6.95;;;;;;;19.39;77.35;96312.47;5114789;28;20016;-65
2021/06/23 01:14:46;;;;;;;10.80;8.43;;;;;;;19.42;77.20;96312.22;5114860;28;20036;-66
2021/06/23 01:17:12;;;;;;;12.00;7.25;;;;;;;19.41;77.17;96312.34;5114659;28;20124;-61
2021/06/23 01:19:43;;;;;;;13.98;8.55;;;;;;;19.40;77.19;96306.22;5114806;28;20451;-64
2021/06/23 01:22:11;;;;;;;13.10;7.78;;;;;;;19.39;77.51;96312.47;5114846;28;20043;-68
2021/06/23 01:24:36;;;;;;;24.13;10.85;;;;;;;19.37;77.09;96314.41;5114591;28;20027;-66
2021/06/23 01:27:02;;;;;;;12.02;8.43;;;;;;;19.37;76.92;96310.91;5114562;28;20427;-66
2021/06/23 01:29:28;;;;;;;8.55;6.72;;;;;;;19.42;76.81;96308.75;5114634;28;20382;-66
2021/06/23 01:31:53;;;;;;;17.88;8.10;;;;;;;19.40;76.78;96308.00;5114448;28;20084;-71
2021/06/23 01:34:19;;;;;;;9.50;6.35;;;;;;;19.44;76.10;96312.09;5114560;28;20024;-64
2021/06/23 01:36:44;;;;;;;18.35;7.45;;;;;;;19.43;75.93;96298.03;5114448;28;20028;-69
2021/06/23 01:39:10;;;;;;;10.18;7.60;;;;;;;19.43;76.17;96310.44;5114498;28;20024;-65
2021/06/23 01:41:35;;;;;;;15.13;8.77;;;;;;;19.41;76.05;96305.25;5114428;28;20027;-63
2021/06/23 01:44:02;;;;;;;7.78;6.47;;;;;;;19.42;75.74;96301.63;5114305;28;20027;-64
2021/06/23 01:46:27;;;;;;;10.80;7.20;;;;;;;19.34;75.92;96298.72;5114147;28;20028;-71
2021/06/23 01:48:55;;;;;;;12.45;7.55;;;;;;;19.32;76.09;96296.19;5114084;28;20016;-63
2021/06/23 01:51:21;;;;;;;8.95;7.93;;;;;;;19.21;75.99;96293.53;5114082;28;20039;-68
2021/06/23 01:53:47;;;;;;;10.05;7.63;;;;;;;19.24;76.79;96284.50;5114259;28;20106;-66
2021/06/23 01:56:12;;;;;;;13.57;9.20;;;;;;;19.24;76.54;96298.63;5114084;28;20024;-69
2021/06/23 01:58:40;;;;;;;12.10;6.53;;;;;;;19.24;76.37;96305.72;5114095;28;20085;-65
2021/06/23 02:01:08;;;;;;;18.85;8.10;;;;;;;19.10;77.07;96301.47;5112910;28;20034;-63
2021/06/23 02:03:56;;;;;;;11.80;6.88;;;;;;;19.03;77.37;96307.19;5113862;28;20058;-66
2021/06/23 02:06:33;;;;;;;11.13;7.32;;;;;;;18.95;77.55;96304.28;5113944;28;20028;-66
2021/06/23 02:09:12;;;;;;;7.55;6.75;;;;;;;18.98;77.48;96303.22;5114002;28;20031;-65
2021/06/23 02:11:47;;;;;;;10.65;7.72;;;;;;;18.93;77.22;96291.16;5113770;28;20046;-71
2021/06/23 02:14:36;;;;;;;15.45;8.57;;;;;;;18.92;77.57;96297.44;5113775;28;20039;-68
2021/06/23 02:17:05;;;;;;;8.95;7.57;;;;;;;18.93;77.45;96292.97;5098327;28;20066;-66
2021/06/23 02:19:31;;;;;;;13.63;7.30;;;;;;;18.93;77.58;96301.75;5113709;28;20094;-66
2021/06/23 02:21:59;;;;;;;15.75;6.97;;;;;;;18.93;76.89;96304.41;5113655;28;20022;-69
2021/06/23 02:24:27;;;;;;;10.32;8.40;;;;;;;18.96;76.89;96294.56;5113585;28;20050;-62
2021/06/23 02:26:53;;;;;;;13.00;7.50;;;;;;;18.97;77.08;96297.09;5113381;28;20027;-68
2021/06/23 02:29:19;;;;;;;11.25;8.25;;;;;;;18.94;78.05;96290.19;5113633;28;20015;-65
2021/06/23 02:31:45;;;;;;;19.50;10.93;;;;;;;18.89;79.68;96291.50;5113510;28;20045;-62
2021/06/23 02:34:14;;;;;;;9.88;8.93;;;;;;;18.90;78.98;96288.75;5113681;28;20129;-64
2021/06/23 02:36:41;;;;;;;17.38;8.35;;;;;;;18.96;78.31;96287.44;5113444;28;20359;-64
2021/06/23 02:39:08;;;;;;;10.48;9.35;;;;;;;18.89;77.87;96281.75;5113593;28;20026;-71
2021/06/23 02:41:34;;;;;;;15.88;8.27;;;;;;;18.87;77.80;96290.78;5113559;28;20016;-66
2021/06/23 02:44:00;;;;;;;10.52;8.00;;;;;;;18.79;78.30;96289.53;5113522;28;20027;-67
2021/06/23 02:46:26;;;;;;;10.82;8.68;;;;;;;18.78;78.12;96292.34;5113514;28;20107;-66
2021/06/23 02:48:52;;;;;;;12.80;8.30;;;;;;;18.78;78.20;96292.34;5113440;28;20024;-66
2021/06/23 02:51:26;;;;;;;13.50;8.40;;;;;;;18.78;78.13;96298.47;5113506;28;20051;-65
2021/06/23 02:53:54;;;;;;;11.15;7.18;;;;;;;18.80;78.20;96303.66;5113521;28;20350;-65
2021/06/23 02:56:21;;;;;;;11.65;8.93;;;;;;;18.84;77.92;96299.81;5113544;28;20024;-64
2021/06/23 02:58:47;;;;;;;11.88;7.75;;;;;;;18.81;78.33;96297.38;5113287;28;20020;-63
2021/06/23 03:01:14;;;;;;;11.73;8.02;;;;;;;18.85;78.18;96304.16;5113270;28;20024;-62
2021/06/23 03:03:40;;;;;;;20.58;10.77;;;;;;;18.94;78.04;96302.63;5113197;28;20477;-65
2021/06/23 03:06:06;;;;;;;12.00;7.10;;;;;;;18.94;77.31;96298.13;5113163;28;20423;-68
2021/06/23 03:08:33;;;;;;;9.27;7.57;;;;;;;18.96;77.03;96305.97;5113214;28;20064;-67
2021/06/23 03:10:58;;;;;;;12.95;7.75;;;;;;;18.95;77.80;96309.59;5113192;28;20402;-69
2021/06/23 03:13:24;;;;;;;7.53;6.63;;;;;;;19.02;77.35;96320.59;5115921;28;20030;-64
2021/06/23 03:15:51;;;;;;;12.40;8.63;;;;;;;19.06;77.48;96312.25;5117265;28;20016;-70
2021/06/23 03:18:16;;;;;;;13.25;7.68;;;;;;;19.09;77.41;96324.50;5116962;28;20035;-65
2021/06/23 03:20:42;;;;;;;10.40;6.75;;;;;;;19.18;77.02;96312.34;5117072;28;20102;-64
2021/06/23 03:23:08;;;;;;;7.80;7.05;;;;;;;19.08;77.82;96314.00;5098794;28;20030;-65
2021/06/23 03:25:33;;;;;;;14.23;7.82;;;;;;;19.15;77.80;96315.22;5116838;28;20166;-61
2021/06/23 03:28:01;;;;;;;9.35;6.07;;;;;;;19.35;76.59;96318.16;5116937;28;20023;-64
2021/06/23 03:30:28;;;;;;;8.77;7.85;;;;;;;19.47;76.28;96319.00;5117027;28;20012;-70
2021/06/23 03:32:54;;;;;;;11.10;6.95;;;;;;;19.68;75.97;96332.38;5116957;28;20038;-69
2021/06/23 03:35:21;;;;;;;9.90;6.45;;;;;;;19.89;75.39;96329.84;5116702;28;20020;-60
2021/06/23 03:37:47;;;;;;;14.55;7.32;;;;;;;20.12;75.68;96340.47;5116711;28;20028;-67
2021/06/23 03:40:14;;;;;;;15.07;6.38;;;;;;;20.32;75.15;96333.53;5116783;28;20051;-62
2021/06/23 03:42:39;;;;;;;16.20;6.63;;;;;;;20.49;75.11;96338.44;5116730;28;20546;-69
2021/06/23 03:45:06;;;;;;;13.40;6.75;;;;;;;20.66;74.80;96334.41;5116706;28;20024;-68
2021/06/23 03:47:31;;;;;;;14.23;7.00;;;;;;;20.78;74.69;96330.75;5116678;28;20038;-67
2021/06/23 03:49:57;;;;;;;13.02;7.40;;;;;;;20.94;75.49;96332.13;5116606;28;20015;-67
2021/06/23 03:52:23;;;;;;;9.50;7.72;;;;;;;21.20;74.83;96334.44;5116478;28;20103;-63
2021/06/23 03:54:48;;;;;;;6.65;5.82;;;;;;;21.41;73.82;96334.41;5116402;28;20027;-64
2021/06/23 03:57:14;;;;;;;10.20;6.75;;;;;;;21.66;73.14;96332.28;5116482;28;20015;-72
2021/06/23 03:59:39;;;;;;;11.13;7.07;;;;;;;21.92;72.66;96334.53;5116382;28;20042;-67
2021/06/23 04:02:06;;;;;;;7.80;5.38;;;;;;;22.26;71.43;96338.69;5116294;28;20023;-65
2021/06/23 04:04:31;;;;;;;17.83;6.60;;;;;;;22.60;70.78;96340.16;5116095;28;20077;-68
2021/06/23 04:06:57;;;;;;;9.50;6.22;;;;;;;22.93;70.10;96342.56;5116192;28;20040;-69
2021/06/23 04:09:22;;;;;;;7.65;6.25;;;;;;;23.28;68.52;96342.94;5116157;28;20077;-64
2021/06/23 04:11:48;;;;;;;8.10;5.50;;;;;;;23.59;67.52;96340.09;5116072;28;20118;-63
2021/06/23 04:14:14;;;;;;;11.50;5.90;;;;;;;23.93;66.57;96344.88;5116195;28;20016;-69
2021/06/23 04:16:39;;;;;;;12.70;6.55;;;;;;;24.26;65.58;96336.44;5115735;28;20128;-70
2021/06/23 04:19:06;;;;;;;8.77;5.90;;;;;;;24.59;64.56;96344.00;5116227;28;20024;-68
2021/06/23 04:21:32;;;;;;;8.73;5.72;;;;;;;24.86;64.01;96336.88;5115973;28;20016;-67
2021/06/23 04:23:57;;;;;;;10.38;6.10;;;;;;;25.13;63.62;96340.47;5114920;28;20022;-64
2021/06/23 04:26:23;;;;;;;8.30;5.13;;;;;;;25.40;62.95;96340.53;5115733;28;20020;-70
2021/06/23 04:28:49;;;;;;;6.05;5.40;;;;;;;25.64;62.04;96342.53;5115744;28;20020;-69
2021/06/23 04:31:15;;;;;;;11.60;5.60;;;;;;;25.85;61.88;96346.66;5115866;28;20019;-67
2021/06/23 04:33:41;;;;;;;7.63;5.50;;;;;;;26.10;61.39;96346.78;5115849;28;20024;-65
2021/06/23 04:36:07;;;;;;;14.82;5.53;;;;;;;26.35;60.39;96354.94;5115642;28;20028;-69
2021/06/23 04:38:32;;;;;;;7.15;4.95;;;;;;;26.62;59.50;96356.53;5115702;28;20076;-68
2021/06/23 04:40:58;;;;;;;7.05;5.07;;;;;;;26.92;59.00;96364.09;5115554;28;20019;-68
2021/06/23 04:43:23;;;;;;;11.40;5.32;;;;;;;27.20;58.64;96365.66;5115658;28;20023;-69
2021/06/23 04:45:49;;;;;;;7.60;5.60;;;;;;;27.44;56.84;96364.81;5115321;28;20491;-69
2021/06/23 04:48:15;;;;;;;8.15;5.90;;;;;;;27.69;56.14;96364.78;5115307;28;20016;-66
2021/06/23 04:50:41;;;;;;;10.70;5.85;;;;;;;27.91;55.59;96370.47;5115419;28;20024;-65
2021/06/23 04:53:06;;;;;;;6.05;5.28;;;;;;;28.13;54.82;96368.88;5115378;28;20023;-70
2021/06/23 04:55:32;;;;;;;9.13;5.45;;;;;;;28.41;55.48;96370.28;5115427;28;20016;-65
2021/06/23 04:57:58;;;;;;;17.70;6.85;;;;;;;28.67;55.28;96374.50;5115329;28;20019;-67
2021/06/23 05:00:23;;;;;;;6.82;5.15;;;;;;;28.96;54.15;96366.78;5115054;28;20035;-76
2021/06/23 05:02:49;;;;;;;8.90;5.70;;;;;;;29.23;53.55;96375.34;5115141;28;20024;-69
2021/06/23 05:05:15;;;;;;;6.43;5.60;;;;;;;29.50;52.30;96373.09;5114990;28;20024;-70
2021/06/23 05:07:41;;;;;;;11.95;5.57;;;;;;;29.75;52.58;96375.56;5115103;28;20051;-71
2021/06/23 05:10:07;;;;;;;9.57;5.32;;;;;;;29.97;51.59;96378.34;5115058;28;20012;-64
2021/06/23 05:12:32;;;;;;;10.80;5.72;;;;;;;30.13;51.71;96378.16;5114911;28;20103;-71
2021/06/23 05:14:58;;;;;;;13.82;5.63;;;;;;;30.32;50.82;96384.06;5114815;28;20115;-70
2021/06/23 05:17:25;;;;;;;9.45;5.93;;;;;;;30.44;50.37;96379.00;5114618;28;20123;-74
2021/06/23 05:19:50;;;;;;;8.30;5.15;;;;;;;30.60;50.44;96377.94;5114899;28;20016;-74
2021/06/23 05:22:16;;;;;;;7.07;5.47;;;;;;;30.73;50.09;96385.34;5114783;28;20432;-68
2021/06/23 05:24:42;;;;;;;14.23;5.95;;;;;;;30.81;48.64;96397.09;5114676;28;20030;-61
2021/06/23 05:27:10;;;;;;;10.07;6.10;;;;;;;30.89;48.93;96386.19;5114571;28;20067;-73
2021/06/23 05:29:36;;;;;;;7.35;5.50;;;;;;;31.02;49.00;96390.88;5114533;28;20027;-72
2021/06/23 05:32:02;;;;;;;9.10;5.47;;;;;;;31.24;49.68;96390.88;5114531;28;20058;-75
2021/06/23 05:34:29;;;;;;;10.18;5.70;;;;;;;31.34;48.53;96393.25;5114526;28;20108;-65
2021/06/23 05:36:58;;;;;;;11.68;5.05;;;;;;;31.43;48.32;96384.00;5114163;28;20028;-71
2021/06/23 05:39:24;;;;;;;7.20;5.43;;;;;;;31.46;49.10;96390.88;5114345;28;20024;-73
2021/06/23 05:41:50;;;;;;;8.85;5.47;;;;;;;31.56;48.13;96390.53;5114298;28;20027;-64
2021/06/23 05:44:16;;;;;;;14.18;5.32;;;;;;;31.74;47.70;96390.06;5114302;28;20370;-65
2021/06/23 05:46:41;;;;;;;7.85;5.13;;;;;;;31.99;49.01;96381.53;5114198;28;20035;-71
2021/06/23 05:49:07;;;;;;;9.82;5.03;;;;;;;32.19;48.17;96387.03;5114240;28;20024;-66
2021/06/23 05:51:33;;;;;;;13.18;6.03;;;;;;;32.36;47.72;96394.81;5114070;28;20023;-71
2021/06/23 05:53:58;;;;;;;9.38;5.93;;;;;;;32.44;47.56;96388.41;5114156;28;20027;-66
2021/06/23 05:56:24;;;;;;;8.18;5.18;;;;;;;32.61;46.70;96392.44;5114201;28;20019;-69
2021/06/23 05:58:50;;;;;;;9.18;5.10;;;;;;;32.76;48.09;96405.00;5114000;28;20123;-75
2021/06/23 06:01:15;;;;;;;7.68;5.15;;;;;;;33.05;47.72;96405.72;5113888;28;20027;-69
2021/06/23 06:03:41;;;;;;;9.27;5.85;;;;;;;33.29;46.27;96408.88;5113928;28;20019;-66
2021/06/23 06:06:06;;;;;;;11.60;5.82;;;;;;;33.32;45.88;96407.63;5113817;28;20024;-69
2021/06/23 06:08:32;;;;;;;9.90;5.70;;;;;;;33.52;45.95;96400.34;5113859;28;20024;-64
2021/06/23 06:10:58;;;;;;;18.92;5.70;;;;;;;33.76;45.99;96411.63;5113916;28;20072;-72
2021/06/23 06:13:24;;;;;;;8.18;5.88;;;;;;;33.86;45.87;96419.31;5113695;28;20136;-69
2021/06/23 06:15:49;;;;;;;11.27;6.32;;;;;;;33.99;45.48;96418.47;5113831;28;20020;-66
2021/06/23 06:18:15;;;;;;;8.57;5.55;;;;;;;34.15;46.24;96413.66;5113391;28;20115;-68
2021/06/23 06:20:41;;;;;;;11.50;5.70;;;;;;;34.40;45.73;96418.41;5113667;28;20016;-73
2021/06/23 06:23:07;;;;;;;12.48;6.07;;;;;;;34.68;45.56;96420.00;5113837;28;20027;-69
2021/06/23 06:25:34;;;;;;;12.05;5.97;;;;;;;34.83;45.36;96424.31;5113684;28;20508;-66
2021/06/23 06:28:00;;;;;;;8.88;5.70;;;;;;;34.63;43.89;96422.50;5113536;28;20473;-71
2021/06/23 06:30:26;;;;;;;13.77;5.75;;;;;;;34.72;42.88;96421.22;5113524;28;20034;-71
2021/06/23 06:32:53;;;;;;;11.30;5.80;;;;;;;34.92;44.24;96423.03;5113578;28;20023;-68
2021/06/23 06:35:20;;;;;;;20.08;5.70;;;;;;;35.06;42.07;96422.94;5113564;28;20028;-68
2021/06/23 06:37:46;;;;;;;21.15;6.05;;;;;;;35.16;40.33;96426.00;5113662;28;20027;-64
2021/06/23 06:40:13;;;;;;;16.63;6.20;;;;;;;34.95;39.99;96419.03;5113596;28;20062;-65
2021/06/23 06:42:38;;;;;;;14.57;6.28;;;;;;;35.16;41.98;96413.25;5113500;28;20020;-68
2021/06/23 06:45:06;;;;;;;25.63;5.97;;;;;;;35.29;41.96;96425.97;5113474;28;20907;-72
2021/06/23 06:47:32;;;;;;;32.55;6.45;;;;;;;35.44;40.51;96426.66;5114749;28;20023;-68
2021/06/23 06:49:58;;;;;;;18.60;5.47;;;;;;;35.66;40.61;96430.69;5117816;28;20028;-71
2021/06/23 06:52:23;;;;;;;18.45;6.45;;;;;;;35.94;40.87;96427.75;5117624;28;20024;-72
2021/06/23 06:54:49;;;;;;;18.90;6.68;;;;;;;36.14;40.54;96430.28;5117534;28;20384;-68
2021/06/23 06:57:15;;;;;;;16.40;5.53;;;;;;;36.03;38.52;96429.94;5117807;28;20027;-72
2021/06/23 06:59:41;;;;;;;18.33;6.32;;;;;;;36.15;40.81;96432.75;5117495;28;20419;-69
2021/06/23 07:02:07;;;;;;;26.05;6.70;;;;;;;36.18;39.17;96428.78;5117489;28;20031;-67
2021/06/23 07:04:33;;;;;;;21.17;5.75;;;;;;;35.92;39.98;96427.97;5117392;28;20032;-70
2021/06/23 07:06:59;;;;;;;12.15;6.32;;;;;;;35.43;39.08;96425.88;5117226;28;20027;-70
2021/06/23 07:09:25;;;;;;;26.50;6.20;;;;;;;35.28;41.15;96421.56;5117224;28;20023;-64
2021/06/23 07:11:50;;;;;;;13.65;6.22;;;;;;;35.23;39.37;96426.84;5117376;28;20019;-68
2021/06/23 07:14:19;;;;;;;14.27;5.88;;;;;;;34.83;40.59;96421.59;5117388;28;20115;-62
2021/06/23 07:16:46;;;;;;;19.48;6.40;;;;;;;34.82;41.99;96422.66;5116981;28;20044;-65
2021/06/23 07:19:11;;;;;;;23.10;6.38;;;;;;;34.82;43.26;96425.38;5117071;28;20089;-71
2021/06/23 07:21:37;;;;;;;14.70;5.97;;;;;;;34.95;41.01;96430.75;5117239;28;20024;-66
2021/06/23 07:24:03;;;;;;;14.25;6.25;;;;;;;34.92;41.39;96428.44;5117047;28;20016;-71
2021/06/23 07:26:30;;;;;;;19.80;6.43;;;;;;;35.16;40.94;96434.97;5116816;28;20473;-72
2021/06/23 07:29:00;;;;;;;20.67;6.55;;;;;;;35.50;39.70;96428.50;5116919;28;20481;-70
2021/06/23 07:31:55;;;;;;;17.33;5.55;;;;;;;35.61;41.36;96440.56;5116870;28;20380;-74
2021/06/23 07:37:05;;;;;;;13.85;6.13;;;;;;;35.68;41.60;96435.91;5116840;28;20023;-69
2021/06/23 07:39:33;;;;;;;20.80;5.80;;;;;;;35.77;39.54;96439.19;5116740;28;20485;-66
2021/06/23 07:41:59;;;;;;;21.38;6.43;;;;;;;35.88;40.08;96432.22;5116604;28;20024;-68
2021/06/23 07:45:11;;;;;;;15.15;6.65;;;;;;;36.01;39.78;96444.84;5116741;28;20106;-72
2021/06/23 07:47:17;;;;;;;22.20;6.57;;;;;;;36.14;39.54;96444.72;5102220;28;20048;-72
2021/06/23 07:49:44;;;;;;;21.80;6.43;;;;;;;36.11;37.97;96437.00;5116724;28;20481;-72
2021/06/23 08:10:47;;;;;;;20.77;6.70;;;;;;;35.31;40.26;96454.78;5116561;28;20125;-70
2021/06/23 08:13:14;;;;;;;17.40;7.85;;;;;;;35.30;41.24;96462.09;5116047;28;20039;-68
2021/06/23 08:15:42;;;;;;;25.58;8.25;;;;;;;35.02;40.25;96458.69;5116080;28;20466;-68
2021/06/23 08:18:09;;;;;;;20.27;7.25;;;;;;;35.06;41.15;96450.09;5115805;28;20050;-69
2021/06/23 08:20:37;;;;;;;25.00;7.20;;;;;;;35.35;41.21;96451.41;5098062;28;20055;-64
2021/06/23 08:23:04;;;;;;;22.02;7.93;;;;;;;35.38;39.00;96447.41;5097779;28;20081;-72
2021/06/23 08:25:29;;;;;;;16.25;7.82;;;;;;;35.58;41.27;96458.16;5115889;28;20031;-65
2021/06/23 08:27:55;;;;;;;18.15;6.68;;;;;;;35.64;39.70;96465.41;5115767;28;20434;-69
2021/06/23 08:30:22;;;;;;;26.50;7.25;;;;;;;35.66;39.45;96466.03;5115835;28;20431;-63
2021/06/23 08:32:48;;;;;;;23.50;7.22;;;;;;;35.41;39.60;96453.25;5115635;28;20036;-65
2021/06/23 08:35:14;;;;;;;27.20;8.45;;;;;;;35.49;39.38;96454.88;5115705;28;20034;-68
2021/06/23 08:37:41;;;;;;;24.40;7.28;;;;;;;35.65;40.20;96468.97;5115765;28;20103;-70
2021/06/23 08:40:09;;;;;;;15.80;8.40;;;;;;;35.29;39.26;96466.72;5115475;28;20487;-62
2021/06/23 08:42:36;;;;;;;21.85;9.43;;;;;;;35.07;41.25;96463.47;5115400;28;20043;-69
2021/06/23 08:45:04;;;;;;;23.98;8.23;;;;;;;34.82;40.86;96464.19;5115483;28;20469;-63
2021/06/23 08:47:30;;;;;;;20.80;8.32;;;;;;;34.59;39.88;96470.13;5115500;28;20106;-64
2021/06/23 08:49:57;;;;;;;25.30;8.60;;;;;;;34.54;40.76;96470.75;5115561;28;20016;-61
2021/06/23 08:52:22;;;;;;;20.48;8.27;;;;;;;34.78;39.84;96461.09;5115488;28;20024;-67
2021/06/23 08:54:54;;;;;;;19.65;7.20;;;;;;;34.57;40.95;96451.34;5115285;28;20034;-65
2021/06/23 08:57:20;;;;;;;22.00;7.97;;;;;;;34.71;42.29;96448.59;5115308;28;20032;-67
2021/06/23 08:59:46;;;;;;;23.33;8.45;;;;;;;34.88;42.55;96452.47;5115164;28;20497;-67
2021/06/23 09:02:16;;;;;;;20.88;7.47;;;;;;;35.07;39.73;96463.47;5115107;28;20027;-65
2021/06/23 09:05:04;;;;;;;19.42;8.35;;;;;;;34.74;39.98;96459.03;5115058;28;20027;-65
2021/06/23 09:07:36;;;;;;;22.20;7.63;;;;;;;34.94;40.67;96460.81;5115056;28;20019;-70
2021/06/23 09:10:05;;;;;;;26.92;7.80;;;;;;;35.09;43.09;96458.63;5114529;28;20567;-70
2021/06/23 09:12:31;;;;;;;18.13;8.30;;;;;;;35.03;39.43;96454.06;5114998;28;20028;-66
2021/06/23 09:14:58;;;;;;;19.05;8.35;;;;;;;34.97;38.88;96471.25;5114901;28;20034;-68
2021/06/23 09:17:23;;;;;;;20.65;8.48;;;;;;;34.60;39.29;96469.06;5114618;28;20389;-69
2021/06/23 09:20:00;;;;;;;19.38;8.45;;;;;;;34.14;40.49;96456.25;5114958;28;20040;-69
2021/06/23 09:22:58;;;;;;;22.95;8.73;;;;;;;34.10;40.21;96465.00;5114730;28;20126;-73
2021/06/23 09:25:25;;;;;;;23.15;8.40;;;;;;;33.90;42.14;96457.72;5111497;28;20043;-65
2021/06/23 09:27:57;;;;;;;28.70;8.50;;;;;;;33.83;43.67;96452.28;5114671;28;20530;-66
2021/06/23 09:30:25;;;;;;;21.27;8.82;;;;;;;33.97;42.69;96444.13;5114469;28;20035;-66
2021/06/23 09:33:24;;;;;;;23.05;8.63;;;;;;;34.36;42.11;96447.00;5114515;28;20028;-69
2021/06/23 09:35:58;;;;;;;18.17;8.57;;;;;;;34.63;44.01;96436.06;5114575;28;20049;-70
2021/06/23 09:38:40;;;;;;;31.80;9.60;;;;;;;34.70;43.59;96439.59;5114516;28;20038;-62
2021/06/23 09:41:26;;;;;;;21.23;7.72;;;;;;;34.76;40.71;96427.88;5114273;28;20024;-68
2021/06/23 09:44:01;;;;;;;20.33;8.60;;;;;;;34.74;41.59;96442.75;5113923;28;20039;-68
2021/06/23 09:46:29;;;;;;;26.25;8.95;;;;;;;34.74;41.60;96438.16;5114317;28;20032;-71
2021/06/23 09:49:23;;;;;;;23.17;8.95;;;;;;;34.53;44.24;96428.38;5114353;28;20084;-68
2021/06/23 09:51:51;;;;;;;16.15;8.23;;;;;;;34.66;43.31;96435.66;5111412;28;20047;-61
2021/06/23 09:54:19;;;;;;;25.17;8.88;;;;;;;34.72;41.56;96429.38;5114031;28;20030;-72
2021/06/23 09:56:46;;;;;;;17.15;7.70;;;;;;;34.72;40.89;96433.97;5113933;28;20389;-70
2021/06/23 09:59:45;;;;;;;24.27;8.75;;;;;;;34.50;40.56;96442.38;5114026;28;20130;-64
2021/06/23 10:02:28;;;;;;;19.20;8.30;;;;;;;34.46;41.53;96433.81;5114036;28;20031;-69
2021/06/23 10:04:59;;;;;;;25.73;8.52;;;;;;;34.49;43.92;96429.88;5113895;28;20064;-72
2021/06/23 10:07:46;;;;;;;17.08;7.55;;;;;;;34.38;41.75;96431.34;5113880;28;20073;-69
2021/06/23 10:10:17;;;;;;;21.08;7.47;;;;;;;34.43;41.11;96430.72;5113873;28;20075;-69
2021/06/23 10:12:45;;;;;;;22.63;7.15;;;;;;;34.39;39.80;96433.00;5113890;28;20059;-67
2021/06/23 10:15:12;;;;;;;23.17;6.90;;;;;;;34.08;39.52;96438.06;5113814;28;20069;-65
2021/06/23 10:17:38;;;;;;;21.45;7.70;;;;;;;33.63;40.78;96434.16;5113486;28;20047;-70
2021/06/23 10:20:05;;;;;;;20.38;7.00;;;;;;;33.42;42.59;96435.16;5113717;28;20500;-69
2021/06/23 10:22:32;;;;;;;29.17;7.68;;;;;;;33.37;43.72;96435.78;5112948;28;20051;-71
2021/06/23 10:25:04;;;;;;;24.27;7.05;;;;;;;33.44;43.89;96432.25;5113612;28;20028;-64
2021/06/23 10:27:33;;;;;;;22.63;7.85;;;;;;;33.23;43.37;96423.25;5113746;28;20547;-64
2021/06/23 10:30:00;;;;;;;31.45;7.38;;;;;;;33.02;42.20;96420.47;5113557;28;20024;-70
2021/06/23 10:32:27;;;;;;;18.98;7.47;;;;;;;32.67;45.80;96436.81;5113609;28;20027;-66
2021/06/23 10:34:53;;;;;;;19.60;6.93;;;;;;;33.02;45.10;96423.16;5113518;28;20081;-71
2021/06/23 10:37:20;;;;;;;23.13;7.07;;;;;;;33.23;44.91;96424.06;5113510;28;20028;-72
2021/06/23 10:39:47;;;;;;;22.77;6.35;;;;;;;33.28;40.72;96421.59;5113532;28;20023;-67
2021/06/23 10:42:13;;;;;;;18.20;5.72;;;;;;;33.02;40.75;96435.91;5113533;28;20024;-68
2021/06/23 10:44:44;;;;;;;25.40;6.30;;;;;;;32.69;39.79;96425.78;5113409;28;20034;-67
2021/06/23 10:47:40;;;;;;;20.30;6.55;;;;;;;32.52;41.42;96435.09;5113335;28;20039;-69
2021/06/23 10:50:25;;;;;;;23.80;6.18;;;;;;;32.38;41.47;96430.59;5113485;28;20031;-68
2021/06/23 10:52:51;;;;;;;24.52;6.15;;;;;;;32.70;42.13;96430.16;5113452;28;20090;-67
2021/06/23 10:55:22;;;;;;;26.10;6.22;;;;;;;32.84;43.29;96422.94;5113400;28;20019;-65
2021/06/23 10:57:53;;;;;;;26.63;6.38;;;;;;;33.06;41.43;96433.63;5113239;28;20362;-66
2021/06/23 11:00:23;;;;;;;23.88;6.10;;;;;;;33.15;41.14;96427.00;5113342;28;20054;-64
2021/06/23 11:02:59;;;;;;;26.50;6.25;;;;;;;33.00;40.33;96425.25;5113271;28;20043;-66
2021/06/23 11:05:34;;;;;;;38.60;5.63;;;;;;;32.99;41.13;96431.69;5113288;28;20035;-67
2021/06/23 11:07:59;;;;;;;32.67;6.47;;;;;;;32.81;42.46;96431.44;5113287;28;20039;-65
2021/06/23 11:10:31;;;;;;;28.05;6.68;;;;;;;32.76;42.63;96440.19;5113236;28;20500;-68
2021/06/23 11:13:05;;;;;;;27.83;7.03;;;;;;;32.64;42.26;96429.94;5113276;28;20523;-64
2021/06/23 11:15:31;;;;;;;21.52;6.97;;;;;;;32.37;42.36;96426.25;5113172;28;20024;-64
2021/06/23 11:18:19;;;;;;;23.55;6.25;;;;;;;32.47;42.51;96420.47;5094610;28;20046;-67
2021/06/23 11:20:50;;;;;;;23.90;6.60;;;;;;;32.51;44.66;96424.47;5113213;28;20058;-67
2021/06/23 11:23:54;;;;;;;19.17;6.20;;;;;;;32.36;43.90;96440.81;5113080;28;20028;-62
2021/06/23 11:26:23;;;;;;;29.73;6.10;;;;;;;32.12;43.49;96446.47;5112906;28;20039;-72
2021/06/23 11:28:55;;;;;;;27.83;6.53;;;;;;;31.96;42.56;96444.94;5113034;28;20035;-71
2021/06/23 11:31:21;;;;;;;30.77;6.85;;;;;;;31.80;43.14;96450.59;5112972;28;20114;-68
2021/06/23 11:33:50;;;;;;;26.17;7.25;;;;;;;31.98;42.64;96445.56;5114497;28;20027;-68
2021/06/23 11:36:19;;;;;;;23.52;5.72;;;;;;;32.24;45.97;96454.06;5116783;28;20057;-66
2021/06/23 11:38:47;;;;;;;25.43;6.10;;;;;;;32.51;43.05;96448.81;5116796;28;20023;-70
2021/06/23 11:41:14;;;;;;;26.65;6.78;;;;;;;32.69;42.89;96440.16;5116672;28;20286;-67
2021/06/23 11:43:40;;;;;;;21.60;5.55;;;;;;;32.92;43.45;96446.28;5116731;28;20132;-66
2021/06/23 11:46:05;;;;;;;36.65;6.45;;;;;;;33.12;42.75;96443.66;5116471;28;20482;-72
2021/06/23 11:48:31;;;;;;;18.98;6.03;;;;;;;33.25;43.62;96440.97;5116551;28;20092;-65
2021/06/23 11:50:57;;;;;;;21.25;5.97;;;;;;;33.40;43.23;96426.38;5098334;28;20016;-66
2021/06/23 11:53:23;;;;;;;18.63;5.88;;;;;;;33.55;42.54;96439.75;5116442;28;20045;-70